• Join FlightAware (Why Join?)
  • Login
  • US Flag 
10:38AM EDT


 

Airport Tracker/Info


-or-


 

Live Flight TrackerFlight Track Log ✈ KAP1286 ✈ 08-May-2013 ✈ KHGR - KHYA

Flight Track Log - Related Links

Times and Time Zones

All times are in EDT time to prevent confusion due to time zone crossing. See the KAP1286 flight status page for this flight to view local times or setup timezone preferences in your user account.

Time Position Orientation Groundspeed Altitude Reporting Facility
EDT Latitude Longitude Course Direction KTS MPH feet Rate Location/Type
02:11PM 39.7044 -77.7656 90° East 173 199 1,900  Level Washington Center
02:12PM 39.6997 -77.7975 259° West 149 171 3,200 960 Climbing Washington Center
02:13PM 39.6969 -77.8433 266° West 133 153 3,900 420 Climbing Washington Center
02:14PM 39.9052 -77.5615 37° Northeast  Level FlightAware Approximate
02:14PM 39.6897 -77.8972 260° West 139 160 4,100  Level Washington Center
02:15PM 39.9333 -77.5262 90° East  Level FlightAware Approximate
02:15PM 39.6906 -77.9483 271° West 147 169 5,000  Level Washington Center
02:16PM 39.7139 -77.9383 18° North 96 110 5,700 840 Climbing Washington Center
02:17PM 39.7231 -77.8928 75° East 60 69 6,800 660 Climbing Washington Center
02:18PM 39.7344 -77.8444 73° East 97 112 7,100 60 Climbing Washington Center
02:19PM 39.7478 -77.7856 74° East 140 161 7,000  Descending Washington Center
02:20PM 39.7842 -77.7436 42° Northeast 153 176 7,100 -60 Climbing Washington Center
02:21PM 39.8244 -77.7042 37° Northeast 159 183 6,900 -120 Descending Washington Center
02:22PM 39.8583 -77.6619 44° Northeast 166 191 6,900  Level Washington Center
02:24PM 39.8799 -77.5861 14° North  Level Estimated
02:31PM 39.9458 -77.2403 86° East  Level FlightAware Approximate
02:32PM 39.9483 -77.1870 87° East  Level FlightAware Approximate
02:33PM 39.9500 -77.1337 90° East  Level FlightAware Approximate
02:34PM 39.9500 -77.0803 90° East  Level FlightAware Approximate
02:35PM 39.9500 -77.0268 90° East  Level FlightAware Approximate
02:36PM 39.9500 -76.9734 90° East  Level FlightAware Approximate
02:37PM 39.9501 -76.9200 90° East  Level FlightAware Approximate
02:38PM 39.9501 -76.8666 90° East  Level FlightAware Approximate
02:39PM 39.9500 -76.8132 90° East  Level FlightAware Approximate
02:40PM 39.9500 -76.7598 90° East  Level FlightAware Approximate
02:41PM 39.9500 -76.7064 90° East  Level FlightAware Approximate
02:42PM 39.9500 -76.6529 90° East  Level FlightAware Approximate
02:43PM 39.9572 -76.6023 57° Northeast  Level FlightAware Approximate
02:43PM 40.2736 -76.5603 57° Northeast 155 178 6,900  Level New York Center
02:44PM 39.9796 -76.5576 57° Northeast  Level FlightAware Approximate
02:44PM 40.2903 -76.5208 61° Northeast 164 189 7,700  Level New York Center
02:45PM 40.0020 -76.5128 57° Northeast  Level FlightAware Approximate
02:45PM 40.3114 -76.4708 61° Northeast 148 170 8,700  Level New York Center
02:46PM 40.0243 -76.4680 57° Northeast  Level FlightAware Approximate
02:46PM 40.3303 -76.4261 61° Northeast 148 170 8,900  Level New York Center
02:47PM 40.0467 -76.4233 57° Northeast  Level FlightAware Approximate
02:47PM 40.3581 -76.3683 58° Northeast 159 183 8,900  Level New York Center
02:48PM 40.0691 -76.3785 57° Northeast  Level FlightAware Approximate
02:48PM 40.3831 -76.3214 55° Northeast 159 183 8,900  Level New York Center
02:49PM 40.0915 -76.3337 57° Northeast  Level FlightAware Approximate
02:49PM 40.4039 -76.2767 59° Northeast 159 183 8,900  Level New York Center
02:50PM 40.4192 -76.2181 71° East 153 176 8,900  Level New York Center
02:51PM 40.4344 -76.1592 71° East 153 176 8,900  Level New York Center
02:52PM 40.4467 -76.1164 69° East 148 170 8,900  Level New York Center
02:53PM 40.4600 -76.0547 74° East 153 176 9,000  Climbing New York Center
02:54PM 40.4731 -75.9931 74° East 148 170 9,000  Level New York Center
02:55PM 40.4939 -75.9481 59° Northeast 143 165 9,100  Climbing New York Center
02:56PM 40.5383 -75.9350 13° North 154 177 9,000 -60 Descending New York Center
02:57PM 40.5847 -75.9194 14° North 173 199 9,000  Level New York Center
02:58PM 40.6375 -75.9042 12° North 173 199 9,100 -60 Climbing New York Center
02:59PM 40.6819 -75.8883 15° North 173 199 8,900 -120 Descending New York Center
03:00PM 40.7306 -75.8728 14° North 168 193 8,900  Level New York Center
03:01PM 40.7731 -75.8542 18° North 168 193 8,900  Level New York Center
03:02PM 40.8219 -75.8331 18° North 168 193 8,900  Level New York Center
03:03PM 40.8750 -75.8122 17° North 174 200 8,900  Level New York Center
03:04PM 40.9214 -75.7939 17° North 174 200 8,900  Level New York Center
03:05PM 40.9703 -75.7756 16° North 174 200 8,900  Level New York Center
03:06PM 41.0189 -75.7542 18° North 174 200 8,900  Level New York Center
03:07PM 41.0633 -75.7383 15° North 174 200 8,900  Level New York Center
03:08PM 41.1142 -75.7200 15° North 169 194 8,900  Level New York Center
03:09PM 41.1631 -75.6986 18° North 175 201 8,900  Level New York Center
03:10PM 41.2036 -75.6714 27° Northeast 167 192 9,000  Climbing New York Center
03:11PM 41.2267 -75.6206 59° Northeast 162 186 8,900 -60 Descending New York Center
03:12PM 41.2581 -75.5650 53° Northeast 169 194 8,900  Level New York Center
03:13PM 41.2869 -75.5172 51° Northeast 164 189 8,900  Level New York Center
03:14PM 41.3161 -75.4669 52° Northeast 164 189 8,900  Level New York Center
03:15PM 41.3428 -75.4244 50° Northeast 164 189 8,900  Level New York Center
03:16PM 41.3719 -75.3711 54° Northeast 169 194 8,900  Level New York Center
03:17PM 41.4033 -75.3125 54° Northeast 169 194 8,900  Level New York Center
03:18PM 41.4322 -75.2675 49° Northeast 169 194 8,900  Level New York Center
03:20PM 41.4897 -75.1811 48° Northeast 170 196 9,000  Climbing Boston Center
03:21PM 41.5056 -75.1261 69° East 157 181 9,000  Level Boston Center
03:22PM 41.5153 -75.0711 77° East 151 174 9,000  Level Boston Center
03:23PM 41.5144 -75.0158 91° East 139 160 9,100  Climbing Boston Center
03:24PM 41.5156 -74.9714 88° East 139 160 9,000  Descending Boston Center
03:25PM 41.5125 -74.9103 94° East 139 160 9,100  Climbing Boston Center
03:26PM 41.5094 -74.8631 95° East 139 160 9,100 -60 Level Boston Center
03:27PM 41.5003 -74.8100 103° East 139 160 9,000  Descending Boston Center
03:28PM 41.5117 -74.7606 73° East 139 160 9,100  Climbing Boston Center
03:29PM 41.5294 -74.7003 68° East 149 171 9,000 -60 Descending Boston Center
03:30PM 41.5408 -74.6533 72° East 149 171 9,000  Level Boston Center
03:31PM 41.5586 -74.5931 68° East 149 171 9,000  Level Boston Center
03:32PM 41.5744 -74.5381 69° East 154 177 9,000  Level Boston Center
03:33PM 41.5881 -74.4744 74° East 164 189 9,000  Level Boston Center
03:34PM 41.6017 -74.4111 74° East 169 194 9,000  Level Boston Center
03:35PM 41.6131 -74.3506 76° East 169 194 9,000  Level Boston Center
03:36PM 41.6247 -74.2869 76° East 169 194 9,000  Level Boston Center
03:37PM 41.6361 -74.2261 76° East 164 189 9,000  Level Boston Center
03:38PM 41.6453 -74.1625 79° East 164 189 9,000  Level Boston Center
03:39PM 41.6506 -74.0986 84° East 164 189 9,000  Level Boston Center
03:40PM 41.6533 -74.0433 86° East 164 189 9,000  Level Boston Center
03:41PM 41.6647 -73.9739 78° East 164 189 9,000  Level Boston Center
03:42PM 41.6717 -73.9186 80° East 164 189 9,000  Level Boston Center
03:43PM 41.6747 -73.8492 87° East 159 183 9,100  Climbing Boston Center
03:44PM 41.6753 -73.7936 89° East 159 183 9,000 -60 Descending Boston Center
03:45PM 41.6783 -73.7242 87° East 159 183 9,000  Level Boston Center
03:46PM 41.6789 -73.6714 89° East 164 189 9,000  Level Boston Center
03:47PM 41.6817 -73.6019 87° East 163 188 9,000  Level Boston Center
03:48PM 41.6819 -73.5631 89° East 166 191 9,000  Level Boston Center
03:48PM 41.6822 -73.5492 88° East 163 188 9,000  Level Boston Center
03:49PM 41.6767 -73.4794 96° East 158 182 9,000  Level Boston Center
03:49PM 41.6725 -73.4628 108° East 163 188 9,000 60 Level Boston Center
03:50PM 41.6728 -73.4267 89° East 163 188 9,100  Climbing Boston Center
03:51PM 41.6694 -73.3600 94° East 163 188 9,000 -60 Descending Boston Center
03:52PM 41.6700 -73.2878 89° East 157 181 9,000  Level Boston Center
03:53PM 41.6678 -73.2711 100° East 163 188 9,000  Level Boston Center
03:53PM 41.6703 -73.2322 85° East 157 181 9,000  Level Boston Center
03:54PM 41.6708 -73.1597 89° East 161 185 9,000  Level Boston Center
03:55PM 41.6733 -73.1017 87° East 161 185 9,000  Level Boston Center
03:56PM 41.6736 -73.0375 90° East 163 188 9,000  Level Boston Center
03:57PM 41.6758 -72.9819 87° East 161 185 9,000  Level Boston Center
03:59PM 41.6719 -72.9097 94° East 165 190 9,000  Level Boston Center
04:00PM 41.6639 -72.8542 101° East 160 184 9,000  Level Boston Center
04:01PM 41.6581 -72.7875 97° East 161 185 9,000  Level Boston Center
04:02PM 41.6519 -72.7344 99° East 162 186 9,000  Level Boston Center
04:03PM 41.6458 -72.6761 98° East 159 183 9,000  Level Boston Center
04:03PM 41.6394 -72.6261 100° East 161 185 9,000 -60 Level Boston Center
04:05PM 41.6397 -72.5622 90° East 164 189 8,900  Descending Boston Center
04:06PM 41.6481 -72.4956 80° East 159 183 9,000 120 Climbing Boston Center
04:06PM 41.6522 -72.4678 79° East 156 180 9,100  Climbing Boston Center
04:07PM 41.6583 -72.4428 72° East 159 183 9,000  Descending Boston Center
04:08PM 41.6667 -72.3872 79° East 157 181 9,100  Climbing Boston Center
04:09PM 41.6667 -72.3317 90° East 154 177 9,100  Level Boston Center
04:10PM 41.6689 -72.2761 87° East 155 178 9,100 -60 Level Boston Center
04:11PM 41.6686 -72.2178 90° East 157 181 9,000 -60 Descending Boston Center
04:12PM 41.6706 -72.1511 88° East 154 177 9,000  Level Boston Center
04:13PM 41.6706 -72.0928 90° East 153 176 9,000  Level Boston Center
04:14PM 41.6722 -72.0344 88° East 157 181 9,000  Level Boston Center
04:15PM 41.6700 -71.9817 93° East 157 181 9,000  Level Boston Center
04:16PM 41.6697 -71.9261 90° East 154 177 9,000  Level Boston Center
04:18PM 41.6714 -71.8092 89° East 154 177 9,000  Level Boston Center
04:19PM 41.6708 -71.7508 91° East 156 180 9,000  Level Boston Center
04:20PM 41.6664 -71.6953 96° East 155 178 9,000 -240 Level Boston Center
04:21PM 41.6661 -71.6314 90° East 162 186 8,600 -420 Descending Boston Center
04:22PM 41.6656 -71.5647 91° East 167 192 8,200 -420 Descending Boston Center
04:23PM 41.6628 -71.5008 93° East 169 194 7,800 -420 Descending Boston Center
04:24PM 41.6625 -71.4481 90° East 166 191 7,400 -420 Descending Boston Center
04:25PM 41.6578 -71.3842 96° East 167 192 7,000 -240 Descending Boston Center
04:26PM 41.6550 -71.3203 93° East 165 190 7,000  Level Boston Center
04:28PM 41.6567 -71.2235 89° East  Level Estimated
04:35PM 41.6628 -70.8399 89° East  Level Estimated
04:36PM 41.6636 -70.7851 89° East  Level Estimated
04:37PM 41.6643 -70.7303 89° East  Level Estimated
04:38PM 41.6650 -70.6755 89° East  Level Estimated
04:39PM 41.6657 -70.6207 89° East  Level Estimated
04:40PM 41.6663 -70.5659 89° East  Level Estimated
04:41PM 41.6670 -70.5111 89° East  Level Estimated
04:42PM 41.6676 -70.4563 89° East  Level Estimated
04:43PM 41.6682 -70.4015 89° East  Level Estimated
04:44PM 41.6687 -70.3466 89° East  Level Estimated
04:45PM 41.6692 -70.2918 89° East  Level Estimated
04:46PM 41.6693 -70.2804 89° East  Level Estimated
04:47PM 41.6693 -70.2804 346° North  Level Estimated
04:48PM 41.6693 -70.2804 346° North  Level Estimated
04:49PM 41.6693 -70.2804 346° North  Level Estimated
04:50PM 41.6693 -70.2804 346° North  Level Estimated
04:51PM 41.6693 -70.2804 346° North  Level Estimated
04:52PM 41.6693 -70.2804 346° North  Level Estimated
04:53PM 41.6693 -70.2804 346° North  Level Estimated
04:54PM 41.6693 -70.2804 346° North  Level Estimated
04:55PM 41.6693 -70.2804 346° North  Level Estimated
04:56PM 41.6693 -70.2804 346° North  Level Estimated
04:57PM 41.6693 -70.2804 346° North  Level Estimated
04:58PM 41.6693 -70.2804 346° North  Level Estimated
04:59PM 41.6693 -70.2804 346° North  Level Estimated